sensor_id;sensor_type;location;lat;lon;timestamp;P1;durP1;ratioP1;P2;durP2;ratioP2
11514;SDS011;5814;41.936;25.556;2022-07-29T00:01:08;11.35;;;10.23;;
11514;SDS011;5814;41.936;25.556;2022-07-29T00:03:35;12.20;;;11.20;;
11514;SDS011;5814;41.936;25.556;2022-07-29T00:06:02;12.13;;;10.60;;
11514;SDS011;5814;41.936;25.556;2022-07-29T00:08:29;10.43;;;9.45;;
11514;SDS011;5814;41.936;25.556;2022-07-29T00:10:56;10.02;;;9.13;;
11514;SDS011;5814;41.936;25.556;2022-07-29T00:13:23;9.40;;;8.23;;
11514;SDS011;5814;41.936;25.556;2022-07-29T00:15:51;10.13;;;9.10;;
11514;SDS011;5814;41.936;25.556;2022-07-29T00:18:18;13.80;;;12.43;;
11514;SDS011;5814;41.936;25.556;2022-07-29T00:20:45;13.65;;;12.40;;
11514;SDS011;5814;41.936;25.556;2022-07-29T00:23:12;17.17;;;14.52;;
11514;SDS011;5814;41.936;25.556;2022-07-29T00:25:39;24.70;;;18.95;;
11514;SDS011;5814;41.936;25.556;2022-07-29T00:28:07;27.75;;;20.00;;
11514;SDS011;5814;41.936;25.556;2022-07-29T00:30:34;26.67;;;20.70;;
11514;SDS011;5814;41.936;25.556;2022-07-29T00:33:01;21.25;;;18.95;;
11514;SDS011;5814;41.936;25.556;2022-07-29T00:35:28;12.68;;;11.40;;
11514;SDS011;5814;41.936;25.556;2022-07-29T00:38:01;9.82;;;7.97;;
11514;SDS011;5814;41.936;25.556;2022-07-29T00:40:28;7.57;;;7.00;;
11514;SDS011;5814;41.936;25.556;2022-07-29T00:42:55;7.35;;;6.78;;
11514;SDS011;5814;41.936;25.556;2022-07-29T00:45:22;7.95;;;7.37;;
11514;SDS011;5814;41.936;25.556;2022-07-29T00:47:49;7.70;;;7.15;;
11514;SDS011;5814;41.936;25.556;2022-07-29T00:50:17;7.62;;;7.12;;
11514;SDS011;5814;41.936;25.556;2022-07-29T00:52:44;10.48;;;9.60;;
11514;SDS011;5814;41.936;25.556;2022-07-29T00:55:12;7.90;;;7.30;;
11514;SDS011;5814;41.936;25.556;2022-07-29T00:57:39;9.25;;;8.48;;
11514;SDS011;5814;41.936;25.556;2022-07-29T01:00:06;8.25;;;7.70;;
11514;SDS011;5814;41.936;25.556;2022-07-29T01:02:34;9.65;;;8.73;;
11514;SDS011;5814;41.936;25.556;2022-07-29T01:05:01;9.10;;;8.27;;
11514;SDS011;5814;41.936;25.556;2022-07-29T01:07:28;8.45;;;7.68;;
11514;SDS011;5814;41.936;25.556;2022-07-29T01:09:55;8.23;;;7.37;;
11514;SDS011;5814;41.936;25.556;2022-07-29T01:12:24;7.90;;;7.30;;
11514;SDS011;5814;41.936;25.556;2022-07-29T01:14:50;7.93;;;7.20;;
11514;SDS011;5814;41.936;25.556;2022-07-29T01:17:20;9.55;;;7.28;;
11514;SDS011;5814;41.936;25.556;2022-07-29T01:19:52;7.65;;;7.15;;
11514;SDS011;5814;41.936;25.556;2022-07-29T01:22:25;7.03;;;6.62;;
11514;SDS011;5814;41.936;25.556;2022-07-29T01:27:48;8.18;;;7.25;;
11514;SDS011;5814;41.936;25.556;2022-07-29T01:30:14;7.87;;;6.95;;
11514;SDS011;5814;41.936;25.556;2022-07-29T01:32:42;9.43;;;7.12;;
11514;SDS011;5814;41.936;25.556;2022-07-29T01:35:10;7.25;;;6.85;;
11514;SDS011;5814;41.936;25.556;2022-07-29T01:37:39;8.10;;;7.50;;
11514;SDS011;5814;41.936;25.556;2022-07-29T01:40:08;9.43;;;8.50;;
11514;SDS011;5814;41.936;25.556;2022-07-29T01:42:35;8.95;;;8.05;;
11514;SDS011;5814;41.936;25.556;2022-07-29T01:45:06;9.27;;;8.57;;
11514;SDS011;5814;41.936;25.556;2022-07-29T01:47:35;8.13;;;7.53;;
11514;SDS011;5814;41.936;25.556;2022-07-29T01:50:10;8.35;;;7.85;;
11514;SDS011;5814;41.936;25.556;2022-07-29T01:52:47;8.02;;;7.43;;
11514;SDS011;5814;41.936;25.556;2022-07-29T01:55:16;7.57;;;7.07;;
11514;SDS011;5814;41.936;25.556;2022-07-29T01:57:44;7.60;;;7.10;;
11514;SDS011;5814;41.936;25.556;2022-07-29T02:00:11;7.43;;;7.03;;
11514;SDS011;5814;41.936;25.556;2022-07-29T02:02:39;8.40;;;7.60;;
11514;SDS011;5814;41.936;25.556;2022-07-29T02:05:06;7.35;;;6.85;;
11514;SDS011;5814;41.936;25.556;2022-07-29T02:07:33;8.90;;;8.20;;
11514;SDS011;5814;41.936;25.556;2022-07-29T02:10:01;9.05;;;8.27;;
11514;SDS011;5814;41.936;25.556;2022-07-29T02:12:28;8.88;;;8.27;;
11514;SDS011;5814;41.936;25.556;2022-07-29T02:14:55;8.20;;;7.50;;
11514;SDS011;5814;41.936;25.556;2022-07-29T02:17:23;8.15;;;7.45;;
11514;SDS011;5814;41.936;25.556;2022-07-29T02:19:50;8.40;;;7.80;;
11514;SDS011;5814;41.936;25.556;2022-07-29T02:22:17;7.57;;;6.95;;
11514;SDS011;5814;41.936;25.556;2022-07-29T02:24:44;7.15;;;6.65;;
11514;SDS011;5814;41.936;25.556;2022-07-29T02:27:11;8.52;;;7.78;;
11514;SDS011;5814;41.936;25.556;2022-07-29T02:29:38;8.13;;;7.53;;
11514;SDS011;5814;41.936;25.556;2022-07-29T02:32:06;8.40;;;7.60;;
11514;SDS011;5814;41.936;25.556;2022-07-29T02:34:33;9.07;;;8.32;;
11514;SDS011;5814;41.936;25.556;2022-07-29T02:37:00;9.10;;;8.40;;
11514;SDS011;5814;41.936;25.556;2022-07-29T02:39:27;10.05;;;9.32;;
11514;SDS011;5814;41.936;25.556;2022-07-29T02:41:56;9.50;;;8.70;;
11514;SDS011;5814;41.936;25.556;2022-07-29T02:44:23;9.70;;;8.93;;
11514;SDS011;5814;41.936;25.556;2022-07-29T02:46:50;9.18;;;8.45;;
11514;SDS011;5814;41.936;25.556;2022-07-29T02:49:22;9.85;;;9.15;;
11514;SDS011;5814;41.936;25.556;2022-07-29T02:51:53;9.13;;;8.45;;
11514;SDS011;5814;41.936;25.556;2022-07-29T02:54:26;11.55;;;9.60;;
11514;SDS011;5814;41.936;25.556;2022-07-29T02:56:53;8.98;;;8.48;;
11514;SDS011;5814;41.936;25.556;2022-07-29T02:59:20;12.02;;;10.93;;
11514;SDS011;5814;41.936;25.556;2022-07-29T03:01:47;8.35;;;7.72;;
11514;SDS011;5814;41.936;25.556;2022-07-29T03:04:14;8.85;;;8.15;;
11514;SDS011;5814;41.936;25.556;2022-07-29T03:06:41;13.95;;;12.68;;
11514;SDS011;5814;41.936;25.556;2022-07-29T03:09:08;8.45;;;7.75;;
11514;SDS011;5814;41.936;25.556;2022-07-29T03:11:35;10.25;;;9.45;;
11514;SDS011;5814;41.936;25.556;2022-07-29T03:14:03;9.77;;;8.80;;
11514;SDS011;5814;41.936;25.556;2022-07-29T03:16:30;9.32;;;8.52;;
11514;SDS011;5814;41.936;25.556;2022-07-29T03:18:57;10.20;;;9.27;;
11514;SDS011;5814;41.936;25.556;2022-07-29T03:21:24;16.02;;;14.40;;
11514;SDS011;5814;41.936;25.556;2022-07-29T03:23:51;11.57;;;10.55;;
11514;SDS011;5814;41.936;25.556;2022-07-29T03:26:18;9.93;;;9.23;;
11514;SDS011;5814;41.936;25.556;2022-07-29T03:28:46;12.18;;;11.18;;
11514;SDS011;5814;41.936;25.556;2022-07-29T03:31:13;10.60;;;9.85;;
11514;SDS011;5814;41.936;25.556;2022-07-29T03:33:40;11.43;;;10.25;;
11514;SDS011;5814;41.936;25.556;2022-07-29T03:36:07;10.70;;;9.70;;
11514;SDS011;5814;41.936;25.556;2022-07-29T03:38:34;9.90;;;8.90;;
11514;SDS011;5814;41.936;25.556;2022-07-29T03:41:04;10.13;;;9.32;;
11514;SDS011;5814;41.936;25.556;2022-07-29T03:43:32;9.95;;;9.18;;
11514;SDS011;5814;41.936;25.556;2022-07-29T03:45:58;14.82;;;13.43;;
11514;SDS011;5814;41.936;25.556;2022-07-29T03:48:26;10.48;;;9.35;;
11514;SDS011;5814;41.936;25.556;2022-07-29T03:50:53;10.60;;;9.60;;
11514;SDS011;5814;41.936;25.556;2022-07-29T03:53:20;8.25;;;7.68;;
11514;SDS011;5814;41.936;25.556;2022-07-29T03:55:50;10.32;;;9.52;;
11514;SDS011;5814;41.936;25.556;2022-07-29T03:58:14;10.63;;;9.80;;
11514;SDS011;5814;41.936;25.556;2022-07-29T04:00:42;8.80;;;8.10;;
11514;SDS011;5814;41.936;25.556;2022-07-29T04:03:09;15.95;;;13.75;;
11514;SDS011;5814;41.936;25.556;2022-07-29T04:05:36;12.50;;;11.18;;
11514;SDS011;5814;41.936;25.556;2022-07-29T04:08:03;10.07;;;9.27;;
11514;SDS011;5814;41.936;25.556;2022-07-29T04:10:31;13.57;;;8.77;;
11514;SDS011;5814;41.936;25.556;2022-07-29T04:12:58;9.52;;;8.60;;
11514;SDS011;5814;41.936;25.556;2022-07-29T04:15:25;11.70;;;9.13;;
11514;SDS011;5814;41.936;25.556;2022-07-29T04:17:52;14.05;;;12.77;;
11514;SDS011;5814;41.936;25.556;2022-07-29T04:20:20;12.63;;;11.48;;
11514;SDS011;5814;41.936;25.556;2022-07-29T04:22:47;14.93;;;13.20;;
11514;SDS011;5814;41.936;25.556;2022-07-29T04:25:14;11.68;;;10.57;;
11514;SDS011;5814;41.936;25.556;2022-07-29T04:27:41;14.87;;;12.27;;
11514;SDS011;5814;41.936;25.556;2022-07-29T04:30:08;10.20;;;9.30;;
11514;SDS011;5814;41.936;25.556;2022-07-29T04:32:36;9.00;;;8.10;;
11514;SDS011;5814;41.936;25.556;2022-07-29T04:35:03;11.20;;;7.82;;
11514;SDS011;5814;41.936;25.556;2022-07-29T04:37:30;11.50;;;10.30;;
11514;SDS011;5814;41.936;25.556;2022-07-29T04:39:57;12.70;;;8.75;;
11514;SDS011;5814;41.936;25.556;2022-07-29T04:42:25;10.27;;;9.38;;
11514;SDS011;5814;41.936;25.556;2022-07-29T04:44:52;8.02;;;7.43;;
11514;SDS011;5814;41.936;25.556;2022-07-29T04:47:19;11.95;;;9.05;;
11514;SDS011;5814;41.936;25.556;2022-07-29T04:49:46;15.18;;;13.60;;
11514;SDS011;5814;41.936;25.556;2022-07-29T04:52:13;14.00;;;12.80;;
11514;SDS011;5814;41.936;25.556;2022-07-29T04:54:40;8.88;;;7.95;;
11514;SDS011;5814;41.936;25.556;2022-07-29T04:57:08;11.60;;;7.00;;
11514;SDS011;5814;41.936;25.556;2022-07-29T04:59:35;9.95;;;8.93;;
11514;SDS011;5814;41.936;25.556;2022-07-29T05:02:02;9.00;;;7.80;;
11514;SDS011;5814;41.936;25.556;2022-07-29T05:04:29;10.45;;;9.50;;
11514;SDS011;5814;41.936;25.556;2022-07-29T05:06:56;11.15;;;9.50;;
11514;SDS011;5814;41.936;25.556;2022-07-29T05:09:23;7.85;;;7.30;;
11514;SDS011;5814;41.936;25.556;2022-07-29T05:11:51;11.02;;;8.95;;
11514;SDS011;5814;41.936;25.556;2022-07-29T05:14:18;8.38;;;7.68;;
11514;SDS011;5814;41.936;25.556;2022-07-29T05:16:45;9.98;;;7.62;;
11514;SDS011;5814;41.936;25.556;2022-07-29T05:19:12;7.78;;;7.28;;
11514;SDS011;5814;41.936;25.556;2022-07-29T05:21:39;8.05;;;7.35;;
11514;SDS011;5814;41.936;25.556;2022-07-29T05:24:06;11.65;;;10.80;;
11514;SDS011;5814;41.936;25.556;2022-07-29T05:26:34;8.98;;;8.15;;
11514;SDS011;5814;41.936;25.556;2022-07-29T05:29:01;6.80;;;6.30;;
11514;SDS011;5814;41.936;25.556;2022-07-29T05:31:28;6.50;;;6.20;;
11514;SDS011;5814;41.936;25.556;2022-07-29T05:33:55;6.15;;;5.85;;
11514;SDS011;5814;41.936;25.556;2022-07-29T05:36:22;6.37;;;5.87;;
11514;SDS011;5814;41.936;25.556;2022-07-29T05:38:49;5.85;;;5.45;;
11514;SDS011;5814;41.936;25.556;2022-07-29T05:41:17;7.18;;;6.62;;
11514;SDS011;5814;41.936;25.556;2022-07-29T05:43:44;6.35;;;5.95;;
11514;SDS011;5814;41.936;25.556;2022-07-29T05:46:11;6.85;;;6.40;;
11514;SDS011;5814;41.936;25.556;2022-07-29T05:48:38;5.90;;;5.53;;
11514;SDS011;5814;41.936;25.556;2022-07-29T05:51:05;6.70;;;6.30;;
11514;SDS011;5814;41.936;25.556;2022-07-29T05:53:32;6.28;;;5.87;;
11514;SDS011;5814;41.936;25.556;2022-07-29T05:56:02;12.57;;;11.50;;
11514;SDS011;5814;41.936;25.556;2022-07-29T05:58:27;8.93;;;8.30;;
11514;SDS011;5814;41.936;25.556;2022-07-29T06:00:54;6.53;;;6.03;;
11514;SDS011;5814;41.936;25.556;2022-07-29T06:03:21;6.47;;;5.87;;
11514;SDS011;5814;41.936;25.556;2022-07-29T06:05:48;6.43;;;5.93;;
11514;SDS011;5814;41.936;25.556;2022-07-29T06:08:16;7.62;;;6.28;;
11514;SDS011;5814;41.936;25.556;2022-07-29T06:10:43;6.78;;;6.18;;
11514;SDS011;5814;41.936;25.556;2022-07-29T06:13:10;8.63;;;7.05;;
11514;SDS011;5814;41.936;25.556;2022-07-29T06:15:37;6.50;;;5.97;;
11514;SDS011;5814;41.936;25.556;2022-07-29T06:18:04;8.25;;;6.78;;
11514;SDS011;5814;41.936;25.556;2022-07-29T06:20:32;7.22;;;6.32;;
11514;SDS011;5814;41.936;25.556;2022-07-29T06:22:59;7.97;;;7.30;;
11514;SDS011;5814;41.936;25.556;2022-07-29T06:25:27;14.38;;;13.20;;
11514;SDS011;5814;41.936;25.556;2022-07-29T06:27:56;15.60;;;11.45;;
11514;SDS011;5814;41.936;25.556;2022-07-29T06:30:23;5.90;;;5.50;;
11514;SDS011;5814;41.936;25.556;2022-07-29T06:32:50;8.30;;;7.45;;
11514;SDS011;5814;41.936;25.556;2022-07-29T06:35:17;6.82;;;6.25;;
11514;SDS011;5814;41.936;25.556;2022-07-29T06:37:44;6.05;;;5.65;;
11514;SDS011;5814;41.936;25.556;2022-07-29T06:40:12;6.07;;;5.68;;
11514;SDS011;5814;41.936;25.556;2022-07-29T06:42:44;7.65;;;7.15;;
11514;SDS011;5814;41.936;25.556;2022-07-29T06:45:11;7.05;;;6.37;;
11514;SDS011;5814;41.936;25.556;2022-07-29T06:47:39;8.43;;;7.75;;
11514;SDS011;5814;41.936;25.556;2022-07-29T06:50:06;8.40;;;7.55;;
11514;SDS011;5814;41.936;25.556;2022-07-29T06:52:34;8.02;;;7.25;;
11514;SDS011;5814;41.936;25.556;2022-07-29T06:55:01;15.60;;;14.20;;
11514;SDS011;5814;41.936;25.556;2022-07-29T06:57:28;9.13;;;8.40;;
11514;SDS011;5814;41.936;25.556;2022-07-29T06:59:56;12.85;;;8.52;;
11514;SDS011;5814;41.936;25.556;2022-07-29T07:02:23;6.35;;;5.85;;
11514;SDS011;5814;41.936;25.556;2022-07-29T07:04:50;8.30;;;7.55;;
11514;SDS011;5814;41.936;25.556;2022-07-29T07:07:17;10.13;;;9.13;;
11514;SDS011;5814;41.936;25.556;2022-07-29T07:09:44;6.07;;;5.47;;
11514;SDS011;5814;41.936;25.556;2022-07-29T07:12:11;9.07;;;6.72;;
11514;SDS011;5814;41.936;25.556;2022-07-29T07:14:38;7.97;;;7.37;;
11514;SDS011;5814;41.936;25.556;2022-07-29T07:17:06;6.87;;;6.30;;
11514;SDS011;5814;41.936;25.556;2022-07-29T07:19:33;6.82;;;6.40;;
11514;SDS011;5814;41.936;25.556;2022-07-29T07:22:00;5.80;;;5.40;;
11514;SDS011;5814;41.936;25.556;2022-07-29T07:24:27;5.60;;;5.30;;
11514;SDS011;5814;41.936;25.556;2022-07-29T07:26:55;7.05;;;6.55;;
11514;SDS011;5814;41.936;25.556;2022-07-29T07:29:22;10.55;;;6.20;;
11514;SDS011;5814;41.936;25.556;2022-07-29T07:31:49;5.95;;;5.45;;
11514;SDS011;5814;41.936;25.556;2022-07-29T07:34:16;6.40;;;6.00;;
11514;SDS011;5814;41.936;25.556;2022-07-29T07:36:43;6.15;;;5.65;;
11514;SDS011;5814;41.936;25.556;2022-07-29T07:39:10;5.72;;;5.22;;
11514;SDS011;5814;41.936;25.556;2022-07-29T07:41:37;6.45;;;5.75;;
11514;SDS011;5814;41.936;25.556;2022-07-29T07:44:06;5.82;;;5.18;;
11514;SDS011;5814;41.936;25.556;2022-07-29T07:46:33;5.28;;;4.87;;
11514;SDS011;5814;41.936;25.556;2022-07-29T07:49:00;7.53;;;6.95;;
11514;SDS011;5814;41.936;25.556;2022-07-29T07:51:27;5.80;;;5.15;;
11514;SDS011;5814;41.936;25.556;2022-07-29T07:53:55;5.87;;;5.37;;
11514;SDS011;5814;41.936;25.556;2022-07-29T07:56:22;5.47;;;5.10;;
11514;SDS011;5814;41.936;25.556;2022-07-29T07:58:49;5.60;;;5.20;;
11514;SDS011;5814;41.936;25.556;2022-07-29T08:01:17;5.75;;;5.30;;
11514;SDS011;5814;41.936;25.556;2022-07-29T08:03:44;5.90;;;5.40;;
11514;SDS011;5814;41.936;25.556;2022-07-29T08:06:11;5.60;;;5.18;;
11514;SDS011;5814;41.936;25.556;2022-07-29T08:08:38;6.57;;;5.95;;
11514;SDS011;5814;41.936;25.556;2022-07-29T08:11:05;5.68;;;5.30;;
11514;SDS011;5814;41.936;25.556;2022-07-29T08:13:33;5.28;;;4.97;;
11514;SDS011;5814;41.936;25.556;2022-07-29T08:16:00;5.80;;;5.50;;
11514;SDS011;5814;41.936;25.556;2022-07-29T08:18:28;6.00;;;5.40;;
11514;SDS011;5814;41.936;25.556;2022-07-29T08:20:54;6.57;;;6.10;;
11514;SDS011;5814;41.936;25.556;2022-07-29T08:23:21;5.82;;;5.53;;
11514;SDS011;5814;41.936;25.556;2022-07-29T08:25:49;6.05;;;5.57;;
11514;SDS011;5814;41.936;25.556;2022-07-29T08:28:16;6.30;;;5.82;;
11514;SDS011;5814;41.936;25.556;2022-07-29T08:30:43;5.85;;;5.45;;
11514;SDS011;5814;41.936;25.556;2022-07-29T08:33:10;6.53;;;5.80;;
11514;SDS011;5814;41.936;25.556;2022-07-29T08:35:38;6.53;;;5.78;;
11514;SDS011;5814;41.936;25.556;2022-07-29T08:38:04;6.20;;;5.90;;
11514;SDS011;5814;41.936;25.556;2022-07-29T08:40:32;6.03;;;5.50;;
11514;SDS011;5814;41.936;25.556;2022-07-29T08:43:03;5.53;;;5.15;;
11514;SDS011;5814;41.936;25.556;2022-07-29T08:45:26;5.97;;;5.47;;
11514;SDS011;5814;41.936;25.556;2022-07-29T08:47:53;6.57;;;6.07;;
11514;SDS011;5814;41.936;25.556;2022-07-29T08:50:21;6.37;;;5.97;;
11514;SDS011;5814;41.936;25.556;2022-07-29T08:52:48;5.82;;;5.43;;
11514;SDS011;5814;41.936;25.556;2022-07-29T08:55:15;5.47;;;4.97;;
11514;SDS011;5814;41.936;25.556;2022-07-29T08:57:42;6.40;;;5.40;;
11514;SDS011;5814;41.936;25.556;2022-07-29T09:00:09;5.55;;;5.03;;
11514;SDS011;5814;41.936;25.556;2022-07-29T09:02:40;5.72;;;5.32;;
11514;SDS011;5814;41.936;25.556;2022-07-29T09:05:06;5.40;;;5.00;;
11514;SDS011;5814;41.936;25.556;2022-07-29T09:07:34;5.70;;;5.30;;
11514;SDS011;5814;41.936;25.556;2022-07-29T09:10:01;6.03;;;5.50;;
11514;SDS011;5814;41.936;25.556;2022-07-29T09:12:29;7.35;;;5.40;;
11514;SDS011;5814;41.936;25.556;2022-07-29T09:14:55;6.00;;;5.60;;
11514;SDS011;5814;41.936;25.556;2022-07-29T09:20:16;7.78;;;5.47;;
11514;SDS011;5814;41.936;25.556;2022-07-29T09:22:42;6.15;;;5.75;;
11514;SDS011;5814;41.936;25.556;2022-07-29T09:25:11;5.55;;;5.12;;
11514;SDS011;5814;41.936;25.556;2022-07-29T09:27:37;6.00;;;5.70;;
11514;SDS011;5814;41.936;25.556;2022-07-29T09:30:05;6.12;;;5.82;;
11514;SDS011;5814;41.936;25.556;2022-07-29T09:32:32;6.75;;;6.25;;
11514;SDS011;5814;41.936;25.556;2022-07-29T09:37:38;7.30;;;6.70;;
11514;SDS011;5814;41.936;25.556;2022-07-29T09:40:11;6.75;;;6.25;;
11514;SDS011;5814;41.936;25.556;2022-07-29T09:42:38;6.30;;;5.90;;
11514;SDS011;5814;41.936;25.556;2022-07-29T09:45:06;6.95;;;6.40;;
11514;SDS011;5814;41.936;25.556;2022-07-29T09:47:42;7.20;;;6.70;;
11514;SDS011;5814;41.936;25.556;2022-07-29T09:50:09;6.62;;;6.05;;
11514;SDS011;5814;41.936;25.556;2022-07-29T09:55:11;7.10;;;6.50;;
11514;SDS011;5814;41.936;25.556;2022-07-29T09:57:39;5.97;;;5.62;;
11514;SDS011;5814;41.936;25.556;2022-07-29T10:00:10;6.72;;;6.30;;
11514;SDS011;5814;41.936;25.556;2022-07-29T10:02:40;6.97;;;6.47;;
11514;SDS011;5814;41.936;25.556;2022-07-29T10:05:06;6.30;;;5.82;;
11514;SDS011;5814;41.936;25.556;2022-07-29T10:10:09;6.00;;;5.70;;
11514;SDS011;5814;41.936;25.556;2022-07-29T10:15:15;6.18;;;5.37;;
11514;SDS011;5814;41.936;25.556;2022-07-29T10:17:42;5.47;;;5.18;;
11514;SDS011;5814;41.936;25.556;2022-07-29T10:20:09;5.78;;;5.30;;
11514;SDS011;5814;41.936;25.556;2022-07-29T10:22:37;5.30;;;5.00;;
11514;SDS011;5814;41.936;25.556;2022-07-29T10:25:04;5.65;;;5.07;;
11514;SDS011;5814;41.936;25.556;2022-07-29T10:27:32;5.78;;;5.30;;
11514;SDS011;5814;41.936;25.556;2022-07-29T10:30:00;5.72;;;5.43;;
11514;SDS011;5814;41.936;25.556;2022-07-29T10:35:18;5.45;;;5.15;;
11514;SDS011;5814;41.936;25.556;2022-07-29T10:37:56;5.72;;;5.22;;
11514;SDS011;5814;41.936;25.556;2022-07-29T10:40:28;5.85;;;5.45;;
11514;SDS011;5814;41.936;25.556;2022-07-29T10:45:41;5.60;;;5.28;;
11514;SDS011;5814;41.936;25.556;2022-07-29T10:48:11;5.75;;;5.25;;
11514;SDS011;5814;41.936;25.556;2022-07-29T10:53:17;5.60;;;5.20;;
11514;SDS011;5814;41.936;25.556;2022-07-29T10:55:44;6.12;;;4.95;;
11514;SDS011;5814;41.936;25.556;2022-07-29T10:58:13;6.43;;;5.20;;
11514;SDS011;5814;41.936;25.556;2022-07-29T11:00:44;5.57;;;5.07;;
11514;SDS011;5814;41.936;25.556;2022-07-29T11:03:37;5.60;;;5.30;;
11514;SDS011;5814;41.936;25.556;2022-07-29T11:05:58;6.00;;;5.60;;
11514;SDS011;5814;41.936;25.556;2022-07-29T11:08:25;5.72;;;5.43;;
11514;SDS011;5814;41.936;25.556;2022-07-29T11:11:30;5.57;;;5.28;;
11514;SDS011;5814;41.936;25.556;2022-07-29T11:15:59;5.60;;;5.30;;
11514;SDS011;5814;41.936;25.556;2022-07-29T11:18:26;5.57;;;5.28;;
11514;SDS011;5814;41.936;25.556;2022-07-29T11:20:53;4.90;;;4.50;;
11514;SDS011;5814;41.936;25.556;2022-07-29T11:23:23;4.57;;;4.28;;
11514;SDS011;5814;41.936;25.556;2022-07-29T11:26:13;5.07;;;4.87;;
11514;SDS011;5814;41.936;25.556;2022-07-29T11:28:27;8.68;;;5.68;;
11514;SDS011;5814;41.936;25.556;2022-07-29T11:30:54;4.80;;;4.50;;
11514;SDS011;5814;41.936;25.556;2022-07-29T11:33:33;5.18;;;4.87;;
11514;SDS011;5814;41.936;25.556;2022-07-29T11:36:14;5.30;;;4.90;;
11514;SDS011;5814;41.936;25.556;2022-07-29T11:38:42;5.68;;;5.22;;
11514;SDS011;5814;41.936;25.556;2022-07-29T11:41:21;5.75;;;5.35;;
11514;SDS011;5814;41.936;25.556;2022-07-29T11:43:50;5.60;;;5.20;;
11514;SDS011;5814;41.936;25.556;2022-07-29T11:49:00;5.35;;;4.93;;
11514;SDS011;5814;41.936;25.556;2022-07-29T11:51:27;5.03;;;4.62;;
11514;SDS011;5814;41.936;25.556;2022-07-29T11:53:55;5.43;;;4.90;;
11514;SDS011;5814;41.936;25.556;2022-07-29T11:56:22;5.53;;;5.20;;
11514;SDS011;5814;41.936;25.556;2022-07-29T11:58:49;5.75;;;5.35;;
11514;SDS011;5814;41.936;25.556;2022-07-29T12:01:16;5.60;;;5.10;;
11514;SDS011;5814;41.936;25.556;2022-07-29T12:03:43;5.97;;;5.45;;
11514;SDS011;5814;41.936;25.556;2022-07-29T12:06:11;5.35;;;5.03;;
11514;SDS011;5814;41.936;25.556;2022-07-29T12:08:40;5.28;;;4.90;;
11514;SDS011;5814;41.936;25.556;2022-07-29T12:11:14;4.93;;;4.62;;
11514;SDS011;5814;41.936;25.556;2022-07-29T12:13:38;5.60;;;5.20;;
11514;SDS011;5814;41.936;25.556;2022-07-29T12:16:01;5.10;;;4.90;;
11514;SDS011;5814;41.936;25.556;2022-07-29T12:18:28;4.57;;;4.32;;
11514;SDS011;5814;41.936;25.556;2022-07-29T12:20:57;5.40;;;5.00;;
11514;SDS011;5814;41.936;25.556;2022-07-29T12:23:25;5.07;;;4.68;;
11514;SDS011;5814;41.936;25.556;2022-07-29T12:25:52;5.50;;;5.00;;
11514;SDS011;5814;41.936;25.556;2022-07-29T12:28:21;5.45;;;5.15;;
11514;SDS011;5814;41.936;25.556;2022-07-29T12:30:49;5.25;;;4.80;;
11514;SDS011;5814;41.936;25.556;2022-07-29T12:33:18;6.37;;;5.35;;
11514;SDS011;5814;41.936;25.556;2022-07-29T12:35:46;5.28;;;5.03;;
11514;SDS011;5814;41.936;25.556;2022-07-29T12:38:13;5.50;;;5.20;;
11514;SDS011;5814;41.936;25.556;2022-07-29T12:40:40;5.37;;;4.90;;
11514;SDS011;5814;41.936;25.556;2022-07-29T12:43:08;6.43;;;5.62;;
11514;SDS011;5814;41.936;25.556;2022-07-29T12:45:38;5.12;;;4.72;;
11514;SDS011;5814;41.936;25.556;2022-07-29T12:48:05;5.80;;;5.30;;
11514;SDS011;5814;41.936;25.556;2022-07-29T12:50:32;5.68;;;5.18;;
11514;SDS011;5814;41.936;25.556;2022-07-29T12:58:08;4.82;;;4.53;;
11514;SDS011;5814;41.936;25.556;2022-07-29T13:00:35;5.87;;;5.40;;
11514;SDS011;5814;41.936;25.556;2022-07-29T13:03:02;5.25;;;4.90;;
11514;SDS011;5814;41.936;25.556;2022-07-29T13:08:10;5.57;;;5.15;;
11514;SDS011;5814;41.936;25.556;2022-07-29T13:10:37;5.50;;;5.20;;
11514;SDS011;5814;41.936;25.556;2022-07-29T13:13:07;4.85;;;4.55;;
11514;SDS011;5814;41.936;25.556;2022-07-29T13:15:33;4.60;;;4.30;;
11514;SDS011;5814;41.936;25.556;2022-07-29T13:18:00;5.57;;;4.93;;
11514;SDS011;5814;41.936;25.556;2022-07-29T13:20:28;5.62;;;5.32;;
11514;SDS011;5814;41.936;25.556;2022-07-29T13:22:57;4.53;;;4.32;;
11514;SDS011;5814;41.936;25.556;2022-07-29T13:25:28;5.00;;;4.60;;
11514;SDS011;5814;41.936;25.556;2022-07-29T13:27:54;5.60;;;5.20;;
11514;SDS011;5814;41.936;25.556;2022-07-29T13:30:22;5.05;;;4.75;;
11514;SDS011;5814;41.936;25.556;2022-07-29T13:32:49;5.10;;;4.70;;
11514;SDS011;5814;41.936;25.556;2022-07-29T13:35:16;5.07;;;4.65;;
11514;SDS011;5814;41.936;25.556;2022-07-29T13:37:43;4.70;;;4.45;;
11514;SDS011;5814;41.936;25.556;2022-07-29T13:40:11;5.22;;;4.82;;
11514;SDS011;5814;41.936;25.556;2022-07-29T13:42:38;5.50;;;5.20;;
11514;SDS011;5814;41.936;25.556;2022-07-29T13:45:05;5.37;;;4.70;;
11514;SDS011;5814;41.936;25.556;2022-07-29T13:47:33;5.87;;;4.80;;
11514;SDS011;5814;41.936;25.556;2022-07-29T13:50:01;4.50;;;4.30;;
11514;SDS011;5814;41.936;25.556;2022-07-29T13:52:28;5.00;;;4.57;;
11514;SDS011;5814;41.936;25.556;2022-07-29T13:54:55;4.90;;;4.70;;
11514;SDS011;5814;41.936;25.556;2022-07-29T13:57:22;5.60;;;5.00;;
11514;SDS011;5814;41.936;25.556;2022-07-29T13:59:49;5.07;;;4.78;;
11514;SDS011;5814;41.936;25.556;2022-07-29T14:02:17;5.03;;;4.60;;
11514;SDS011;5814;41.936;25.556;2022-07-29T14:04:44;4.57;;;4.18;;
11514;SDS011;5814;41.936;25.556;2022-07-29T14:07:11;4.60;;;4.30;;
11514;SDS011;5814;41.936;25.556;2022-07-29T14:09:38;4.20;;;4.00;;
11514;SDS011;5814;41.936;25.556;2022-07-29T14:12:06;5.03;;;4.72;;
11514;SDS011;5814;41.936;25.556;2022-07-29T14:14:33;5.00;;;4.60;;
11514;SDS011;5814;41.936;25.556;2022-07-29T14:17:01;4.18;;;3.78;;
11514;SDS011;5814;41.936;25.556;2022-07-29T14:19:28;4.82;;;4.53;;
11514;SDS011;5814;41.936;25.556;2022-07-29T14:21:55;5.20;;;4.90;;
11514;SDS011;5814;41.936;25.556;2022-07-29T14:24:22;4.70;;;4.40;;
11514;SDS011;5814;41.936;25.556;2022-07-29T14:26:49;5.07;;;4.85;;
11514;SDS011;5814;41.936;25.556;2022-07-29T14:29:16;5.10;;;4.70;;
11514;SDS011;5814;41.936;25.556;2022-07-29T14:31:43;4.62;;;4.25;;
11514;SDS011;5814;41.936;25.556;2022-07-29T14:34:11;4.50;;;4.30;;
11514;SDS011;5814;41.936;25.556;2022-07-29T14:36:38;4.82;;;4.57;;
11514;SDS011;5814;41.936;25.556;2022-07-29T14:39:05;5.10;;;4.80;;
11514;SDS011;5814;41.936;25.556;2022-07-29T14:41:32;4.60;;;4.30;;
11514;SDS011;5814;41.936;25.556;2022-07-29T14:43:59;4.87;;;4.68;;
11514;SDS011;5814;41.936;25.556;2022-07-29T14:46:27;5.25;;;4.78;;
11514;SDS011;5814;41.936;25.556;2022-07-29T14:48:54;5.30;;;4.90;;
11514;SDS011;5814;41.936;25.556;2022-07-29T14:51:22;4.68;;;4.43;;
11514;SDS011;5814;41.936;25.556;2022-07-29T14:53:49;5.47;;;5.00;;
11514;SDS011;5814;41.936;25.556;2022-07-29T14:56:16;5.00;;;4.70;;
11514;SDS011;5814;41.936;25.556;2022-07-29T14:58:43;4.75;;;4.37;;
11514;SDS011;5814;41.936;25.556;2022-07-29T15:01:10;4.72;;;4.53;;
11514;SDS011;5814;41.936;25.556;2022-07-29T15:03:37;5.12;;;4.82;;
11514;SDS011;5814;41.936;25.556;2022-07-29T15:06:05;4.45;;;4.15;;
11514;SDS011;5814;41.936;25.556;2022-07-29T15:08:32;4.07;;;3.87;;
11514;SDS011;5814;41.936;25.556;2022-07-29T15:10:59;5.10;;;4.80;;
11514;SDS011;5814;41.936;25.556;2022-07-29T15:13:26;4.62;;;4.43;;
11514;SDS011;5814;41.936;25.556;2022-07-29T15:15:53;4.07;;;3.87;;
11514;SDS011;5814;41.936;25.556;2022-07-29T15:18:20;4.80;;;4.50;;
11514;SDS011;5814;41.936;25.556;2022-07-29T15:20:47;5.00;;;4.70;;
11514;SDS011;5814;41.936;25.556;2022-07-29T15:23:15;4.87;;;4.47;;